Time;durP1;ratioP1;P1;durP2;ratioP2;P2;SDS_P1;SDS_P2;PMS_P1;PMS_P2;Temp;Humidity;BMP_temperature;BMP_pressure;BME280_temperature;BME280_humidity;BME280_pressure;Samples;Min_cycle;Max_cycle;Signal;HPM_P1;HPM_P2
2022/01/03 00:01:46;;;;;;;11.68;8.45;;;;;;;8.26;50.99;94217.97;5021146;28;20036;-75
2022/01/03 00:04:13;;;;;;;15.80;8.45;;;;;;;8.26;51.15;94217.97;5012203;28;20274;-75
2022/01/03 00:06:39;;;;;;;13.65;8.57;;;;;;;8.28;51.13;94213.16;5027204;28;20978;-75
2022/01/03 00:09:06;;;;;;;11.98;8.25;;;;;;;8.10;50.92;94185.63;5012541;28;20527;-76
2022/01/03 00:11:32;;;;;;;12.80;7.97;;;;;;;7.98;51.22;94160.63;5014615;28;20030;-75
2022/01/03 00:13:58;;;;;;;14.90;7.70;;;;;;;8.24;50.74;94183.00;5017601;28;20567;-75
2022/01/03 00:16:24;;;;;;;10.85;6.38;;;;;;;8.30;50.90;94200.41;5016866;28;20021;-76
2022/01/03 00:18:54;;;;;;;10.05;6.28;;;;;;;8.28;50.84;94186.66;5015559;28;20056;-75
2022/01/03 00:21:29;;;;;;;10.98;5.85;;;;;;;8.34;50.75;94185.50;5013687;28;20047;-75
2022/01/03 00:24:06;;;;;;;10.70;6.28;;;;;;;8.36;50.31;94177.28;5017261;28;20428;-75
2022/01/03 00:26:34;;;;;;;14.98;7.13;;;;;;;8.37;50.48;94178.81;5019779;28;20039;-75
2022/01/03 00:29:27;;;;;;;10.93;6.85;;;;;;;8.27;50.86;94166.53;5017704;28;20027;-75
2022/01/03 00:31:57;;;;;;;14.38;6.07;;;;;;;8.33;50.01;94165.38;5026275;28;20148;-76
2022/01/03 00:34:27;;;;;;;10.65;6.05;;;;;;;8.15;50.76;94160.91;5009318;28;20065;-76
2022/01/03 00:36:55;;;;;;;13.10;7.05;;;;;;;8.03;50.48;94142.00;5010288;28;20107;-75
2022/01/03 00:39:21;;;;;;;9.93;6.00;;;;;;;8.18;50.21;94168.25;5025686;28;20032;-75
2022/01/03 00:41:48;;;;;;;10.18;6.07;;;;;;;7.97;50.47;94143.19;5011225;28;20378;-75
2022/01/03 00:44:14;;;;;;;9.10;5.88;;;;;;;8.09;50.22;94177.94;5004232;28;20562;-75
2022/01/03 00:46:41;;;;;;;10.40;6.35;;;;;;;7.87;50.43;94180.41;5017396;28;20082;-76
2022/01/03 00:49:06;;;;;;;9.38;5.40;;;;;;;8.09;49.93;94196.50;5025865;28;20029;-76
2022/01/03 00:51:32;;;;;;;10.02;6.18;;;;;;;8.03;50.01;94189.69;5009499;28;20512;-76
2022/01/03 00:54:05;;;;;;;9.75;5.45;;;;;;;7.84;50.60;94215.38;5023332;28;20592;-74
2022/01/03 00:56:36;;;;;;;11.02;6.53;;;;;;;7.70;51.14;94213.41;5017148;28;20431;-75
2022/01/03 00:59:06;;;;;;;8.73;6.97;;;;;;;7.62;51.38;94195.53;5014548;28;20952;-75
2022/01/03 01:01:37;;;;;;;12.90;7.15;;;;;;;7.51;51.89;94172.13;5018343;28;20156;-75
2022/01/03 01:04:07;;;;;;;10.27;6.53;;;;;;;7.65;51.78;94175.63;4995715;28;20490;-76
2022/01/03 01:06:34;;;;;;;11.05;7.25;;;;;;;7.68;52.06;94159.16;5021147;28;20132;-75
2022/01/03 01:09:04;;;;;;;9.38;6.20;;;;;;;7.69;51.61;94139.56;5025492;28;20409;-76
2022/01/03 01:11:41;;;;;;;7.45;4.88;;;;;;;7.72;51.61;94136.38;5026787;28;20044;-76
2022/01/03 01:14:07;;;;;;;10.35;5.75;;;;;;;7.69;51.36;94132.41;5013205;28;20112;-76
2022/01/03 01:16:34;;;;;;;12.02;6.30;;;;;;;7.79;51.14;94138.66;5014978;28;20479;-74
2022/01/03 01:19:00;;;;;;;12.98;7.18;;;;;;;7.68;51.24;94132.69;5020170;28;20076;-76
2022/01/03 01:21:35;;;;;;;13.82;7.57;;;;;;;7.73;51.50;94137.19;5020274;28;20037;-75
2022/01/03 01:24:01;;;;;;;12.98;7.78;;;;;;;7.53;51.63;94109.88;5012522;28;20075;-76
2022/01/03 01:29:10;;;;;;;11.45;6.80;;;;;;;7.71;51.00;94138.22;5014894;28;20028;-76
2022/01/03 01:31:43;;;;;;;13.88;7.53;;;;;;;7.58;51.22;94120.38;5006304;28;20021;-76
2022/01/03 01:34:14;;;;;;;9.63;6.05;;;;;;;7.75;50.78;94119.13;5019724;28;20540;-75
2022/01/03 01:36:42;;;;;;;12.20;7.15;;;;;;;7.86;50.80;94139.09;4993946;28;20037;-76
2022/01/03 01:39:10;;;;;;;11.27;6.97;;;;;;;7.79;50.89;94128.06;5017542;28;20041;-76
2022/01/03 01:41:40;;;;;;;11.13;6.90;;;;;;;7.83;51.20;94131.72;5005439;28;20034;-75
2022/01/03 01:44:08;;;;;;;15.30;8.20;;;;;;;7.87;51.14;94127.44;5003618;28;20025;-75
2022/01/03 01:46:34;;;;;;;12.05;8.15;;;;;;;7.89;51.07;94130.56;5006631;28;20397;-75
2022/01/03 01:49:04;;;;;;;14.73;7.25;;;;;;;7.84;50.28;94091.72;5017522;28;20033;-75
2022/01/03 01:51:34;;;;;;;13.57;7.57;;;;;;;7.82;50.85;94130.16;5016038;28;20353;-75
2022/01/03 01:54:04;;;;;;;13.82;8.23;;;;;;;7.79;51.16;94123.56;5026146;28;20130;-76
2022/01/03 01:56:35;;;;;;;9.95;6.60;;;;;;;7.72;51.26;94136.38;5012377;28;20048;-76
2022/01/03 01:59:31;;;;;;;12.68;7.45;;;;;;;7.79;51.49;94128.06;5014790;28;20040;-76
2022/01/03 02:02:06;;;;;;;13.98;6.95;;;;;;;7.92;50.94;94135.31;5016947;28;20241;-75
2022/01/03 02:04:47;;;;;;;17.00;9.88;;;;;;;7.78;51.31;94135.22;5016717;28;20064;-75
2022/01/03 02:07:53;;;;;;;14.23;7.25;;;;;;;7.76;51.28;94126.81;5020541;28;20131;-75
2022/01/03 02:10:37;;;;;;;10.02;6.55;;;;;;;7.91;50.65;94117.84;5028657;28;20040;-75
2022/01/03 02:13:02;;;;;;;14.52;6.65;;;;;;;7.60;50.92;94091.78;5015460;28;20580;-74
2022/01/03 02:15:31;;;;;;;11.38;7.18;;;;;;;7.69;51.08;94091.91;5021172;28;20047;-76
2022/01/03 02:18:05;;;;;;;12.85;7.40;;;;;;;7.73;51.21;94078.94;4998397;28;20033;-75
2022/01/03 02:20:32;;;;;;;17.45;8.23;;;;;;;7.64;50.98;94061.00;5002717;28;20904;-75
2022/01/03 02:22:58;;;;;;;15.10;8.80;;;;;;;7.78;50.62;94053.16;5018805;28;20032;-75
2022/01/03 02:25:25;;;;;;;15.73;8.00;;;;;;;7.81;50.71;94059.75;5016017;28;20623;-75
2022/01/03 02:27:53;;;;;;;13.15;6.97;;;;;;;7.79;51.23;94056.59;5008670;28;20026;-75
2022/01/03 02:30:23;;;;;;;10.45;6.90;;;;;;;7.58;51.30;94033.03;5021074;28;20041;-75
2022/01/03 02:32:48;;;;;;;11.52;7.75;;;;;;;7.58;50.98;94021.69;5013217;28;20040;-75
2022/01/03 02:35:15;;;;;;;13.27;8.45;;;;;;;7.77;51.35;94048.94;4991332;28;20508;-76
2022/01/03 02:37:43;;;;;;;13.15;7.38;;;;;;;7.45;52.13;94040.94;5022259;28;20534;-75
2022/01/03 02:40:11;;;;;;;17.73;8.73;;;;;;;7.58;52.40;94059.50;5014095;28;20501;-76
2022/01/03 02:42:37;;;;;;;18.42;10.35;;;;;;;7.62;52.04;94057.09;5004376;28;20053;-75
2022/01/03 02:45:22;;;;;;;15.25;8.52;;;;;;;7.65;52.14;94078.47;5025645;28;20618;-75
2022/01/03 02:47:59;;;;;;;17.23;9.43;;;;;;;7.53;52.22;94078.13;5023648;28;20044;-75
2022/01/03 02:50:26;;;;;;;13.55;7.80;;;;;;;7.59;52.25;94078.81;5005435;28;20120;-75
2022/01/03 02:52:52;;;;;;;17.90;8.43;;;;;;;7.51;52.49;94076.84;5018615;28;20082;-75
2022/01/03 02:55:18;;;;;;;13.85;8.60;;;;;;;7.30;52.37;94055.16;5022433;28;20032;-76
2022/01/03 02:57:46;;;;;;;15.10;7.93;;;;;;;7.28;52.73;94071.34;5013621;28;20546;-75
2022/01/03 03:00:18;;;;;;;16.25;7.90;;;;;;;7.34;52.29;94058.81;5006830;28;21315;-75
2022/01/03 03:02:44;;;;;;;14.32;7.95;;;;;;;7.18;52.46;94041.59;5008601;28;20114;-75
2022/01/03 03:05:11;;;;;;;15.25;7.85;;;;;;;7.34;51.92;94050.88;5015540;28;20452;-75
2022/01/03 03:07:38;;;;;;;15.25;8.02;;;;;;;7.42;51.78;94057.41;5014846;28;20054;-76
2022/01/03 03:10:09;;;;;;;13.73;8.15;;;;;;;7.34;52.20;94050.88;5020455;28;20079;-75
2022/01/03 03:12:36;;;;;;;14.77;7.90;;;;;;;7.05;52.11;94005.25;5017670;28;20029;-75
2022/01/03 03:15:01;;;;;;;14.60;7.90;;;;;;;7.26;52.29;94027.72;4999643;28;20037;-75
2022/01/03 03:17:27;;;;;;;17.30;8.60;;;;;;;7.28;52.19;94034.31;5025546;28;20033;-75
2022/01/03 03:19:57;;;;;;;13.50;7.72;;;;;;;7.36;51.65;94043.44;5007194;28;20120;-75
2022/01/03 03:22:25;;;;;;;13.60;7.82;;;;;;;7.15;52.37;94044.78;5018290;28;20056;-75
2022/01/03 03:24:51;;;;;;;13.23;8.88;;;;;;;7.26;52.27;94054.16;5019391;28;20026;-75
2022/01/03 03:27:17;;;;;;;16.20;8.65;;;;;;;7.06;52.61;94028.78;5019332;28;20029;-75
2022/01/03 03:29:51;;;;;;;16.23;8.18;;;;;;;7.10;52.49;94034.28;5016733;28;20047;-75
2022/01/03 03:32:18;;;;;;;16.48;8.30;;;;;;;7.21;52.51;94051.59;5002152;28;20509;-75
2022/01/03 03:34:46;;;;;;;12.80;8.27;;;;;;;7.26;52.59;94060.25;5011544;28;20115;-75
2022/01/03 03:37:12;;;;;;;13.77;8.23;;;;;;;7.01;52.53;94014.84;5016121;28;20588;-75
2022/01/03 03:39:39;;;;;;;12.98;8.20;;;;;;;7.18;52.65;94028.38;5016439;28;20480;-75
2022/01/03 03:42:08;;;;;;;14.82;8.57;;;;;;;7.00;53.13;94011.41;5017046;28;20137;-76
2022/01/03 03:44:35;;;;;;;13.82;7.80;;;;;;;7.29;52.67;94027.91;5013393;28;20508;-76
2022/01/03 03:47:02;;;;;;;13.32;7.88;;;;;;;7.14;52.69;94025.50;5024473;28;20473;-76
2022/01/03 03:49:27;;;;;;;15.60;8.10;;;;;;;7.23;52.54;94042.31;5013244;28;20140;-75
2022/01/03 03:51:53;;;;;;;11.95;7.55;;;;;;;7.20;52.54;94045.50;5027116;28;20125;-75
2022/01/03 03:54:18;;;;;;;10.48;7.00;;;;;;;7.07;52.93;94045.44;5026271;28;20323;-75
2022/01/03 03:56:44;;;;;;;11.02;6.57;;;;;;;6.62;54.41;94047.59;5003498;28;20144;-76
2022/01/03 03:59:10;;;;;;;10.88;6.43;;;;;;;6.66;54.06;94016.88;5022314;28;20033;-75
2022/01/03 04:01:35;;;;;;;11.70;6.13;;;;;;;6.87;53.16;94027.97;4999123;28;20132;-76
2022/01/03 04:04:01;;;;;;;10.15;6.50;;;;;;;6.64;53.64;94003.16;5007934;28;20049;-76
2022/01/03 04:06:29;;;;;;;10.52;6.00;;;;;;;6.76;53.75;94019.38;5021519;28;20044;-75
2022/01/03 04:08:54;;;;;;;12.27;6.60;;;;;;;6.48;54.05;94036.13;5028453;28;20045;-75
2022/01/03 04:11:20;;;;;;;13.38;6.18;;;;;;;6.59;54.48;94034.94;5012081;28;20122;-75
2022/01/03 04:13:45;;;;;;;15.52;7.82;;;;;;;6.43;55.15;94036.19;5025368;28;20056;-75
2022/01/03 04:16:12;;;;;;;12.15;7.63;;;;;;;6.58;54.68;94038.66;5013920;28;20076;-75
2022/01/03 04:18:37;;;;;;;13.80;7.75;;;;;;;6.65;54.36;94033.78;5015399;28;20137;-75
2022/01/03 04:21:03;;;;;;;12.95;7.88;;;;;;;6.71;53.86;94030.03;5014727;28;20037;-75
2022/01/03 04:23:28;;;;;;;14.40;7.45;;;;;;;6.58;54.16;94036.00;5016848;28;20091;-75
2022/01/03 04:25:54;;;;;;;13.23;7.20;;;;;;;6.72;53.78;94036.09;5020708;28;20513;-76
2022/01/03 04:28:20;;;;;;;9.20;5.68;;;;;;;6.67;53.86;94026.38;5021578;28;20377;-75
2022/01/03 04:30:46;;;;;;;9.70;5.55;;;;;;;6.57;53.86;93989.50;5023251;28;20041;-76
2022/01/03 04:33:11;;;;;;;8.25;5.43;;;;;;;6.95;53.76;94032.63;5019724;28;20523;-75
2022/01/03 04:35:37;;;;;;;9.93;5.60;;;;;;;7.04;53.27;94027.50;5022068;28;20041;-75
2022/01/03 04:38:03;;;;;;;11.63;5.88;;;;;;;6.83;52.98;94003.19;5021229;28;20659;-75
2022/01/03 04:40:29;;;;;;;10.02;5.70;;;;;;;6.71;53.14;94006.22;5027140;28;20071;-75
2022/01/03 04:42:54;;;;;;;8.55;5.65;;;;;;;6.93;53.59;94041.94;5020341;28;20044;-75
2022/01/03 04:45:20;;;;;;;10.48;5.82;;;;;;;6.69;53.81;94013.69;5021837;28;20048;-76
2022/01/03 04:47:46;;;;;;;12.48;6.95;;;;;;;6.89;53.52;94025.06;5021004;28;20083;-75
2022/01/03 04:50:11;;;;;;;9.35;6.50;;;;;;;6.92;52.75;94020.00;5018629;28;21062;-75
2022/01/03 04:52:37;;;;;;;9.82;5.72;;;;;;;6.99;52.35;94051.38;5024318;28;20112;-75
2022/01/03 04:55:03;;;;;;;13.57;5.95;;;;;;;6.80;52.53;94046.81;5011157;28;20037;-75
2022/01/03 04:57:29;;;;;;;11.63;6.15;;;;;;;6.73;53.01;94041.13;5023683;28;20044;-75
2022/01/03 04:59:55;;;;;;;10.88;5.78;;;;;;;6.70;53.18;94046.94;5013419;28;20037;-75
2022/01/03 05:02:20;;;;;;;8.30;5.65;;;;;;;6.90;53.06;94077.63;5023617;28;20041;-75
2022/01/03 05:04:46;;;;;;;14.23;6.47;;;;;;;6.75;52.82;94041.59;5011397;28;20083;-75
2022/01/03 05:07:11;;;;;;;11.60;6.07;;;;;;;6.90;53.05;94087.44;5022428;28;20048;-75
2022/01/03 05:09:37;;;;;;;14.40;7.53;;;;;;;6.81;52.72;94064.25;5016682;28;20055;-75
2022/01/03 05:12:03;;;;;;;12.60;6.75;;;;;;;6.69;53.53;94076.31;5020051;28;20125;-76
2022/01/03 05:14:28;;;;;;;8.27;5.47;;;;;;;6.52;53.78;94039.75;5014642;28;20045;-76
2022/01/03 05:16:54;;;;;;;10.23;5.03;;;;;;;6.72;53.69;94055.41;5013640;28;20025;-76
2022/01/03 05:19:20;;;;;;;6.93;4.50;;;;;;;6.73;53.63;94053.53;5016625;28;20084;-76
2022/01/03 05:21:48;;;;;;;6.65;4.82;;;;;;;6.78;53.56;94058.78;5010079;28;20438;-76
2022/01/03 05:24:14;;;;;;;8.13;4.80;;;;;;;6.56;53.95;94018.84;5007578;28;20558;-75
2022/01/03 05:26:39;;;;;;;4.30;3.63;;;;;;;6.94;53.27;94043.50;5017867;28;20373;-76
2022/01/03 05:29:07;;;;;;;11.82;4.50;;;;;;;6.75;53.75;94035.56;5014426;28;20030;-76
2022/01/03 05:31:32;;;;;;;7.25;4.07;;;;;;;6.83;53.27;94014.56;5019607;28;20021;-76
2022/01/03 05:34:00;;;;;;;7.65;4.10;;;;;;;6.85;53.35;94038.84;5016296;28;20102;-76
2022/01/03 05:36:25;;;;;;;8.95;4.43;;;;;;;6.88;52.71;94039.34;5005205;28;20560;-76
2022/01/03 05:38:51;;;;;;;12.07;4.72;;;;;;;6.93;52.58;94055.94;5021847;28;20048;-75
2022/01/03 05:41:16;;;;;;;7.25;4.50;;;;;;;6.46;53.39;94025.03;5015318;28;20037;-76
2022/01/03 05:43:42;;;;;;;6.18;4.28;;;;;;;6.65;53.17;94022.47;5019115;28;20065;-76
2022/01/03 05:46:07;;;;;;;8.82;4.40;;;;;;;6.62;53.73;94033.56;5013396;28;20179;-75
2022/01/03 05:48:33;;;;;;;5.05;4.05;;;;;;;6.61;53.51;94016.94;5016645;28;20044;-76
2022/01/03 05:50:58;;;;;;;6.35;4.45;;;;;;;6.68;53.30;94012.09;5023368;28;20067;-76
2022/01/03 05:53:24;;;;;;;7.05;4.25;;;;;;;6.69;52.56;94028.75;5026443;28;20126;-76
2022/01/03 05:55:49;;;;;;;6.22;4.30;;;;;;;6.62;53.29;94039.66;5015430;28;21306;-76
2022/01/03 05:58:15;;;;;;;7.95;4.25;;;;;;;6.72;53.13;94052.75;5021101;28;20476;-75
2022/01/03 06:00:42;;;;;;;6.38;4.05;;;;;;;6.39;53.17;94045.72;5016493;28;20505;-75
2022/01/03 06:03:08;;;;;;;7.47;4.38;;;;;;;6.09;54.21;94035.44;5013044;28;20659;-75
2022/01/03 06:08:11;;;;;;;8.27;4.75;;;;;;;6.47;54.18;94053.03;5013751;28;20350;-76
2022/01/03 06:10:41;;;;;;;8.75;4.72;;;;;;;6.48;54.17;94053.81;5019843;28;20039;-76
2022/01/03 06:13:07;;;;;;;7.65;4.88;;;;;;;6.36;53.65;94022.53;5012738;28;20045;-76
2022/01/03 06:15:32;;;;;;;7.35;4.55;;;;;;;6.54;53.63;94053.50;5011765;28;20044;-76
2022/01/03 06:17:58;;;;;;;10.93;5.20;;;;;;;6.58;53.72;94059.00;5015688;28;20836;-76
2022/01/03 06:20:23;;;;;;;10.35;5.50;;;;;;;6.55;53.48;94060.38;5016808;28;20037;-76
2022/01/03 06:22:48;;;;;;;7.35;5.32;;;;;;;6.35;53.76;94042.88;5022077;28;20032;-75
2022/01/03 06:25:14;;;;;;;6.80;4.57;;;;;;;6.66;54.08;94066.28;5016927;28;20040;-76
2022/01/03 06:27:39;;;;;;;6.80;4.50;;;;;;;6.66;54.27;94069.72;5010833;28;20325;-76
2022/01/03 06:30:06;;;;;;;6.20;4.05;;;;;;;6.64;54.02;94053.38;5015241;28;20045;-77
2022/01/03 06:32:32;;;;;;;6.15;4.53;;;;;;;6.66;54.03;94053.88;5025097;28;20463;-76
2022/01/03 06:34:57;;;;;;;9.02;4.43;;;;;;;6.87;53.92;94067.63;4993939;28;20021;-76
2022/01/03 06:37:23;;;;;;;8.25;4.63;;;;;;;7.00;53.10;94072.22;5022207;28;20575;-76
2022/01/03 06:39:49;;;;;;;8.10;4.90;;;;;;;6.86;53.59;94061.56;5007998;28;20625;-77
2022/01/03 06:42:15;;;;;;;9.32;4.20;;;;;;;6.99;53.45;94072.53;5019497;28;20400;-76
2022/01/03 06:44:46;;;;;;;10.93;5.35;;;;;;;6.73;54.00;94045.59;5018181;28;20037;-76
2022/01/03 06:47:12;;;;;;;10.98;5.18;;;;;;;6.93;53.97;94061.22;5016821;28;20485;-76
2022/01/03 06:49:37;;;;;;;10.00;5.50;;;;;;;6.94;54.13;94048.78;5014093;28;20124;-77
2022/01/03 06:52:03;;;;;;;10.50;5.70;;;;;;;7.02;53.83;94045.50;4997807;28;20291;-76
2022/01/03 06:54:30;;;;;;;13.68;7.82;;;;;;;7.11;53.03;94038.50;5008981;28;20370;-76
2022/01/03 06:56:55;;;;;;;16.83;7.90;;;;;;;6.71;53.83;94030.03;5004115;28;20033;-76
2022/01/03 06:59:20;;;;;;;15.90;9.07;;;;;;;6.68;53.53;94017.38;5012157;28;20550;-76
2022/01/03 07:01:46;;;;;;;17.75;9.98;;;;;;;5.94;56.68;94050.38;5009108;28;20420;-75
2022/01/03 07:04:11;;;;;;;15.82;9.63;;;;;;;6.50;55.96;94047.22;5026625;28;20039;-76
2022/01/03 07:06:36;;;;;;;14.85;7.88;;;;;;;6.84;54.91;94062.94;5014677;28;21187;-76
2022/01/03 07:09:06;;;;;;;14.00;9.98;;;;;;;5.79;56.97;94047.84;5028293;28;20071;-76
2022/01/03 07:11:32;;;;;;;20.00;11.45;;;;;;;6.71;55.39;94074.97;4999300;28;20505;-75
2022/01/03 07:19:38;;;;;;;21.35;11.50;;;;;;;7.10;53.84;94060.72;5027402;28;20333;-76
2022/01/03 07:22:04;;;;;;;18.38;11.00;;;;;;;7.13;53.86;94060.19;5022298;28;20231;-76
2022/01/03 07:24:46;;;;;;;22.85;14.98;;;;;;;7.16;53.52;94056.94;5027141;28;20617;-75
2022/01/03 07:27:13;;;;;;;25.77;15.30;;;;;;;7.16;54.14;94049.00;5024828;28;20139;-75
2022/01/03 07:29:41;;;;;;;21.13;13.30;;;;;;;7.12;54.34;94024.22;5021584;28;20057;-75
2022/01/03 07:32:08;;;;;;;15.82;11.20;;;;;;;6.96;55.68;94028.91;5019871;28;20044;-76
2022/01/03 07:34:33;;;;;;;18.05;10.77;;;;;;;6.54;57.03;94016.50;5007381;28;20030;-76
2022/01/03 07:36:59;;;;;;;17.83;8.95;;;;;;;6.13;58.57;94025.91;5015831;28;20149;-75
2022/01/03 07:39:24;;;;;;;17.42;9.93;;;;;;;5.78;60.41;93998.78;5018569;28;20034;-76
2022/01/03 07:41:50;;;;;;;16.15;9.10;;;;;;;6.12;60.78;94026.94;5021521;28;20041;-77
2022/01/03 07:44:15;;;;;;;23.98;11.02;;;;;;;5.99;61.13;94029.19;5014589;28;20269;-75
2022/01/03 07:46:41;;;;;;;17.48;10.65;;;;;;;6.09;61.43;94030.16;5018047;28;20123;-76
2022/01/03 07:49:06;;;;;;;20.25;12.15;;;;;;;6.69;60.01;94021.59;5026177;28;20033;-76
2022/01/03 07:51:32;;;;;;;25.13;14.65;;;;;;;6.82;58.77;94004.25;5020547;28;20140;-76
2022/01/03 07:53:58;;;;;;;18.17;10.98;;;;;;;7.43;57.41;94056.31;5029439;28;20039;-76
2022/01/03 07:56:23;;;;;;;21.60;11.68;;;;;;;7.02;58.05;94048.16;5016262;28;20044;-76
2022/01/03 07:58:49;;;;;;;20.23;12.90;;;;;;;7.43;57.62;94057.13;5018264;28;20033;-76
2022/01/03 08:01:14;;;;;;;22.85;12.73;;;;;;;7.75;56.46;94042.34;5013964;28;20966;-76
2022/01/03 08:03:40;;;;;;;21.08;13.43;;;;;;;7.95;55.57;94021.63;5018031;28;20095;-77
2022/01/03 08:06:08;;;;;;;18.98;12.05;;;;;;;8.20;55.03;94038.94;5022341;28;20678;-76
2022/01/03 08:08:34;;;;;;;21.88;13.57;;;;;;;8.20;54.73;94041.59;5008268;28;20046;-76
2022/01/03 08:10:59;;;;;;;23.13;12.13;;;;;;;7.80;55.82;94042.28;5019892;28;20930;-76
2022/01/03 08:13:25;;;;;;;25.58;15.02;;;;;;;7.33;57.47;94028.16;5006892;28;20017;-76
2022/01/03 08:15:50;;;;;;;25.63;13.82;;;;;;;7.55;56.78;94041.56;5019307;28;20056;-77
2022/01/03 08:18:16;;;;;;;23.55;12.75;;;;;;;7.35;57.99;94047.16;5023601;28;20052;-77
2022/01/03 08:20:41;;;;;;;22.30;11.88;;;;;;;7.52;57.98;94049.31;5015065;28;21012;-76
2022/01/03 08:23:07;;;;;;;20.17;11.73;;;;;;;6.81;59.51;94042.31;5017501;28;20128;-77
2022/01/03 08:25:37;;;;;;;19.83;11.52;;;;;;;6.96;60.63;94050.06;5016388;28;20359;-75
2022/01/03 08:28:04;;;;;;;17.23;9.63;;;;;;;7.20;60.44;94044.72;5008114;28;20612;-76
2022/01/03 08:30:30;;;;;;;20.75;9.35;;;;;;;7.31;59.32;94022.34;5019435;28;20044;-76
2022/01/03 08:32:55;;;;;;;17.60;9.70;;;;;;;7.27;58.70;94030.09;5020248;28;20077;-76
2022/01/03 08:35:22;;;;;;;13.75;8.55;;;;;;;7.47;58.53;94047.53;5020759;28;20490;-76
2022/01/03 08:37:58;;;;;;;14.77;8.70;;;;;;;6.92;60.01;94051.72;5028018;28;20099;-76
2022/01/03 08:40:25;;;;;;;11.15;7.88;;;;;;;6.87;61.38;94043.84;5021362;28;20132;-75
2022/01/03 08:42:51;;;;;;;19.65;9.65;;;;;;;7.16;60.21;94044.50;5023489;28;20098;-76
2022/01/03 08:45:18;;;;;;;13.80;8.75;;;;;;;7.39;59.63;94028.84;5017628;28;20242;-76
2022/01/03 08:47:44;;;;;;;21.65;10.35;;;;;;;7.33;59.43;94025.50;5020757;28;20045;-76
2022/01/03 08:50:10;;;;;;;21.58;10.95;;;;;;;6.93;60.80;94016.28;5022265;28;20468;-75
2022/01/03 08:52:36;;;;;;;15.70;9.77;;;;;;;6.39;62.22;93977.84;5012352;28;20031;-75
2022/01/03 08:55:03;;;;;;;15.57;9.57;;;;;;;6.49;62.99;93995.41;5015710;28;20284;-76
2022/01/03 08:57:29;;;;;;;15.20;8.80;;;;;;;7.06;61.96;93998.91;5022908;28;20102;-76
2022/01/03 08:59:54;;;;;;;18.55;8.52;;;;;;;6.93;61.86;93992.47;5020813;28;20036;-76
2022/01/03 09:02:20;;;;;;;17.05;9.40;;;;;;;7.10;61.52;93992.75;5020761;28;20068;-75
2022/01/03 09:04:46;;;;;;;19.38;10.63;;;;;;;6.93;60.90;93970.53;5019049;28;20029;-76
2022/01/03 09:07:12;;;;;;;12.95;8.40;;;;;;;7.72;59.59;93982.81;5014587;28;20560;-76
2022/01/03 09:09:39;;;;;;;15.32;8.05;;;;;;;8.11;58.32;93969.19;5014906;28;20144;-76
2022/01/03 09:12:07;;;;;;;16.17;8.98;;;;;;;8.62;56.95;93989.38;5013801;28;20041;-76
2022/01/03 09:14:36;;;;;;;12.95;7.88;;;;;;;8.39;56.90;94002.56;4997207;28;20041;-76
2022/01/03 09:17:05;;;;;;;10.80;7.47;;;;;;;8.25;56.60;93975.28;5003575;28;20566;-76
2022/01/03 09:19:31;;;;;;;15.77;8.38;;;;;;;8.87;55.27;93984.34;5014910;28;20040;-76
2022/01/03 09:22:10;;;;;;;16.33;7.90;;;;;;;8.83;53.96;93914.41;5017311;28;20041;-77
2022/01/03 09:28:48;;;;;;;14.90;8.05;;;;;;;8.96;54.45;93984.41;4986124;28;20915;-76
2022/01/03 09:30:24;;;;;;;12.23;8.32;;;;;;;8.09;55.91;93979.28;5012017;28;20385;-76
2022/01/03 09:32:49;;;;;;;14.60;9.55;;;;;;;8.60;55.40;93965.84;5013844;28;20037;-76
2022/01/03 09:35:16;;;;;;;17.35;9.07;;;;;;;8.34;55.47;93947.00;5014245;28;20021;-75
2022/01/03 09:37:41;;;;;;;15.98;7.95;;;;;;;8.37;55.76;93956.22;5018215;28;20341;-77
2022/01/03 09:40:07;;;;;;;17.95;9.57;;;;;;;8.50;55.38;93964.19;5019094;28;20409;-76
2022/01/03 09:42:34;;;;;;;18.27;10.40;;;;;;;8.57;55.03;93947.84;5016135;28;20156;-76
2022/01/03 09:45:04;;;;;;;12.45;8.13;;;;;;;8.75;54.16;93932.91;5020275;28;20420;-77
2022/01/03 09:47:32;;;;;;;13.75;8.27;;;;;;;8.20;55.44;93934.84;5012408;28;20056;-77
2022/01/03 09:49:59;;;;;;;19.15;8.52;;;;;;;8.75;54.91;93940.88;5010755;28;20059;-77
2022/01/03 09:52:26;;;;;;;17.88;8.80;;;;;;;8.39;55.56;93933.66;5015895;28;20037;-77
2022/01/03 09:54:54;;;;;;;14.80;8.73;;;;;;;8.51;55.64;93930.50;5013584;28;20137;-77
2022/01/03 09:57:21;;;;;;;15.50;9.30;;;;;;;8.59;55.47;93921.84;5004296;28;20056;-76
2022/01/03 09:59:47;;;;;;;14.40;8.45;;;;;;;8.59;55.52;93932.44;5015198;28;20037;-77
2022/01/03 10:02:15;;;;;;;16.85;9.02;;;;;;;8.23;56.05;93903.22;5019892;28;20478;-76
2022/01/03 10:04:42;;;;;;;16.70;8.95;;;;;;;8.37;55.16;93864.25;5020489;28;20029;-77
2022/01/03 10:07:12;;;;;;;15.20;9.10;;;;;;;9.25;53.99;93905.25;5021783;28;20351;-76
2022/01/03 10:09:39;;;;;;;12.40;7.68;;;;;;;9.18;53.02;93888.97;5004698;28;20076;-75
2022/01/03 10:12:06;;;;;;;18.33;9.82;;;;;;;9.84;52.33;93898.72;5016144;28;20237;-76
2022/01/03 10:14:31;;;;;;;15.73;9.50;;;;;;;9.60;51.74;93841.72;5007837;28;20424;-76
2022/01/03 10:16:56;;;;;;;13.85;7.88;;;;;;;9.22;52.85;93892.59;4987087;28;20034;-76
2022/01/03 10:19:22;;;;;;;15.80;8.88;;;;;;;9.20;52.98;93872.72;5022326;28;20037;-76
2022/01/03 10:21:51;;;;;;;16.33;9.05;;;;;;;9.58;52.73;93881.09;5000496;28;20549;-77
2022/01/03 10:24:32;;;;;;;16.38;8.30;;;;;;;9.34;52.62;93815.84;5001195;28;20033;-76
2022/01/03 10:26:58;;;;;;;13.50;8.38;;;;;;;9.49;53.33;93878.38;5014788;28;20041;-76
2022/01/03 10:29:30;;;;;;;14.00;10.07;;;;;;;8.56;53.94;93859.59;4992229;28;20037;-76
2022/01/03 10:31:58;;;;;;;14.95;8.40;;;;;;;9.37;53.60;93881.59;5017281;28;20029;-77
2022/01/03 10:34:25;;;;;;;13.98;9.15;;;;;;;10.19;51.74;93867.75;5021645;28;20127;-76
2022/01/03 10:36:52;;;;;;;16.52;10.27;;;;;;;10.02;50.82;93862.41;5001791;28;20639;-76
2022/01/03 10:39:32;;;;;;;14.38;8.98;;;;;;;9.50;50.93;93802.97;5016474;28;20037;-76
2022/01/03 10:42:18;;;;;;;16.98;9.70;;;;;;;9.54;52.74;93858.88;5002477;28;20109;-76
2022/01/03 10:44:46;;;;;;;14.70;8.65;;;;;;;9.54;52.02;93834.97;5004310;28;20041;-76
2022/01/03 10:47:27;;;;;;;18.40;9.57;;;;;;;9.30;52.44;93841.44;5014295;28;20094;-76
2022/01/03 10:49:53;;;;;;;18.55;8.95;;;;;;;9.62;51.52;93815.69;5010642;28;20535;-76
2022/01/03 10:52:22;;;;;;;14.70;8.80;;;;;;;9.55;51.82;93837.34;5010237;28;20036;-77
2022/01/03 10:55:09;;;;;;;16.08;9.85;;;;;;;9.57;52.17;93829.09;5021216;28;20140;-77
2022/01/03 10:57:57;;;;;;;15.05;8.70;;;;;;;9.29;52.30;93823.19;5008936;28;20094;-77
2022/01/03 11:00:23;;;;;;;14.52;9.13;;;;;;;9.36;52.78;93812.88;5007287;28;20092;-76
2022/01/03 11:03:14;;;;;;;18.20;10.30;;;;;;;9.42;52.20;93817.78;5008041;28;20183;-77
2022/01/03 11:05:42;;;;;;;16.88;9.45;;;;;;;9.33;52.12;93814.31;5021247;28;20120;-75
2022/01/03 11:10:44;;;;;;;14.85;9.00;;;;;;;10.09;50.79;93788.31;5025308;28;20463;-76
2022/01/03 11:13:23;;;;;;;14.38;9.23;;;;;;;10.59;49.22;93791.38;4988668;28;20335;-74
2022/01/03 11:15:49;;;;;;;18.65;10.15;;;;;;;10.64;49.15;93799.19;5009742;28;20381;-76
2022/01/03 11:18:16;;;;;;;20.17;9.90;;;;;;;11.03;48.90;93800.88;5013484;28;20159;-75
2022/01/03 11:20:42;;;;;;;15.10;9.52;;;;;;;11.09;48.14;93794.28;5007252;28;20096;-76
2022/01/03 11:23:08;;;;;;;17.88;10.25;;;;;;;11.04;47.86;93789.13;5014846;28;20127;-75
2022/01/03 11:25:35;;;;;;;19.40;10.65;;;;;;;11.22;47.54;93770.44;5013987;28;20572;-75
2022/01/03 11:28:01;;;;;;;16.08;11.18;;;;;;;11.27;47.42;93759.63;5013109;28;20521;-76
2022/01/03 11:30:27;;;;;;;24.30;11.27;;;;;;;10.83;47.96;93764.28;5018475;28;20063;-75
2022/01/03 11:32:53;;;;;;;17.38;10.52;;;;;;;10.93;48.27;93741.88;5013625;28;20124;-75
2022/01/03 11:35:19;;;;;;;20.00;10.15;;;;;;;10.11;49.21;93759.56;5016139;28;20107;-75
2022/01/03 11:37:46;;;;;;;15.20;9.00;;;;;;;9.80;50.35;93754.34;5011094;28;21061;-75
2022/01/03 11:40:14;;;;;;;17.85;10.68;;;;;;;9.48;51.33;93767.22;5012758;28;20570;-75
2022/01/03 11:42:42;;;;;;;19.55;11.18;;;;;;;10.03;50.14;93755.00;5016007;28;20133;-75
2022/01/03 11:45:08;;;;;;;18.65;10.23;;;;;;;10.37;49.04;93750.84;5021226;28;20416;-76
2022/01/03 11:47:36;;;;;;;24.73;11.50;;;;;;;10.93;47.78;93763.94;5013779;28;20037;-76
2022/01/03 11:50:03;;;;;;;19.88;11.88;;;;;;;11.26;47.35;93745.53;5022252;28;20067;-75
2022/01/03 11:52:30;;;;;;;19.05;10.98;;;;;;;11.55;47.43;93753.59;5023871;28;20418;-74